Terminal Aerodrome Forecast
Issued by NWS New Orleans/Baton Rouge, LA

Home | Current Version | Previous Version | Text Only | Print | Product List | Glossary On
Versions: 1 2 3 4 5 6 7 8 9 10 11 12 13 14 15 16 17 18 19 20 21 22
000
FTUS44 KLIX 271720
TAFNEW
TAF
KNEW 271720Z 2718/2818 18015G25KT P6SM BKN035
     FM280200 19008KT P6SM BKN050
     FM280700 20006KT P6SM BKN015
     FM280900 20006KT P6SM BKN008
     FM281200 19005KT P6SM BKN003
     FM281700 17006KT P6SM BKN025=

USA.gov is the U.S. government's official web portal to all federal, state and local government web resources and services.